createdAt,value
2018-05-03T00:00:45.658Z,63.67
2018-05-03T00:01:45.643Z,63.99
2018-05-03T00:02:45.621Z,64.43
2018-05-03T00:03:45.607Z,64.18
2018-05-03T00:04:45.600Z,64.43
2018-05-03T00:05:45.566Z,64.25
2018-05-03T00:06:45.546Z,64.25
2018-05-03T00:07:45.524Z,64.72
2018-05-03T00:08:45.507Z,65.01
2018-05-03T00:09:45.492Z,65.10
2018-05-03T00:10:45.465Z,64.81
2018-05-03T00:11:45.455Z,65.01
2018-05-03T00:12:45.426Z,65.20
2018-05-03T00:13:45.405Z,65.67
2018-05-03T00:14:45.400Z,64.91
2018-05-03T00:15:45.374Z,65.48
2018-05-03T00:16:45.352Z,65.87
2018-05-03T00:17:45.341Z,66.06
2018-05-03T00:18:45.321Z,66.06
2018-05-03T00:19:45.292Z,65.67
2018-05-03T00:20:45.269Z,65.10
2018-05-03T00:21:45.269Z,65.87
2018-05-03T00:22:45.236Z,66.25
2018-05-03T00:23:45.214Z,65.58
2018-05-03T00:24:45.195Z,65.67
2018-05-03T00:25:45.174Z,66.06
2018-05-03T00:26:45.155Z,65.48
2018-05-03T00:27:45.134Z,66.06
2018-05-03T00:28:45.115Z,66.06
2018-05-03T00:29:45.099Z,66.44
2018-05-03T00:30:45.075Z,65.01
2018-05-03T00:31:45.056Z,64.91
2018-05-03T00:32:45.039Z,65.10
2018-05-03T00:33:45.019Z,65.58
2018-05-03T00:34:44.995Z,65.87
2018-05-03T00:35:44.980Z,65.96
2018-05-03T00:36:44.962Z,65.10
2018-05-03T00:37:44.940Z,66.25
2018-05-03T00:38:44.920Z,66.06
2018-05-03T00:39:44.900Z,66.15
2018-05-03T00:40:44.884Z,66.15
2018-05-03T00:41:44.862Z,65.87
2018-05-03T00:42:44.841Z,65.87
2018-05-03T00:43:44.822Z,66.06
2018-05-03T00:44:44.802Z,65.67
2018-05-03T00:45:44.786Z,66.15
2018-05-03T00:46:44.763Z,66.15
2018-05-03T00:47:44.743Z,65.77
2018-05-03T00:48:44.723Z,65.87
2018-05-03T00:49:44.704Z,65.87
2018-05-03T00:50:44.685Z,65.58
2018-05-03T00:51:44.666Z,65.48
2018-05-03T00:52:44.649Z,65.39
2018-05-03T00:53:44.628Z,65.58
2018-05-03T00:54:44.607Z,65.58
2018-05-03T00:55:44.587Z,65.77
2018-05-03T00:56:44.567Z,65.58
2018-05-03T00:57:44.550Z,65.48
2018-05-03T00:58:44.533Z,65.58
2018-05-03T00:59:44.507Z,65.48
2018-05-03T01:00:44.493Z,65.58
2018-05-03T01:01:44.471Z,65.77
2018-05-03T01:02:44.449Z,66.25
2018-05-03T01:03:44.439Z,66.06
2018-05-03T01:04:44.411Z,65.48
2018-05-03T01:05:44.388Z,66.06
2018-05-03T01:06:44.373Z,65.96
2018-05-03T01:07:44.349Z,65.87
2018-05-03T01:08:44.333Z,65.39
2018-05-03T01:09:44.312Z,66.06
2018-05-03T01:10:44.291Z,65.96
2018-05-03T01:11:44.272Z,65.87
2018-05-03T01:12:44.263Z,65.87
2018-05-03T01:13:44.240Z,65.77
2018-05-03T01:14:44.216Z,66.06
2018-05-03T01:15:44.197Z,65.67
2018-05-03T01:16:44.177Z,65.67
2018-05-03T01:17:44.156Z,66.35
2018-05-03T01:18:44.133Z,66.35
2018-05-03T01:19:44.136Z,66.35
2018-05-03T01:20:44.096Z,66.44
2018-05-03T01:21:44.090Z,66.53
2018-05-03T01:22:44.057Z,67.11
2018-05-03T01:23:44.040Z,67.30
2018-05-03T01:24:44.042Z,67.40
2018-05-03T01:25:44.017Z,66.82
2018-05-03T01:26:43.980Z,66.82
2018-05-03T01:27:43.958Z,67.46
2018-05-03T01:28:43.937Z,67.83
2018-05-03T01:29:43.920Z,67.93
2018-05-03T01:30:43.902Z,67.68
2018-05-03T01:31:43.883Z,68.41
2018-05-03T01:32:43.861Z,68.32
2018-05-03T01:33:43.850Z,68.22
2018-05-03T01:34:43.820Z,68.03
2018-05-03T01:35:43.798Z,68.70
2018-05-03T01:36:43.779Z,69.17
2018-05-03T01:37:43.762Z,68.79
2018-05-03T01:38:43.740Z,68.70
2018-05-03T01:39:43.726Z,69.17
2018-05-03T01:40:43.700Z,68.98
2018-05-03T01:41:43.684Z,68.70
2018-05-03T01:42:43.661Z,68.98
2018-05-03T01:43:43.642Z,69.56
2018-05-03T01:44:43.621Z,69.93
2018-05-03T01:45:43.600Z,70.13
2018-05-03T01:46:43.580Z,70.51
2018-05-03T01:47:43.562Z,69.93
2018-05-03T01:48:43.542Z,69.27
2018-05-03T01:49:43.522Z,69.65
2018-05-03T01:50:43.501Z,70.32
2018-05-03T01:51:43.479Z,69.84
2018-05-03T01:52:43.462Z,70.61
2018-05-03T01:53:43.441Z,70.70
2018-05-03T01:54:43.421Z,71.43
2018-05-03T01:55:43.403Z,71.52
2018-05-03T01:56:43.385Z,70.38
2018-05-03T01:57:43.368Z,70.61
2018-05-03T01:58:43.340Z,70.79
2018-05-03T01:59:43.322Z,71.37
2018-05-03T02:00:43.302Z,71.14
2018-05-03T02:01:43.281Z,71.43
2018-05-03T02:02:43.261Z,71.62
2018-05-03T02:03:43.256Z,71.52
2018-05-03T02:04:43.230Z,71.72
2018-05-03T02:05:43.206Z,71.23
2018-05-03T02:06:43.182Z,71.62
2018-05-03T02:07:43.168Z,71.43
2018-05-03T02:08:43.143Z,71.14
2018-05-03T02:09:43.128Z,71.23
2018-05-03T02:10:43.102Z,71.75
2018-05-03T02:11:43.084Z,71.46
2018-05-03T02:12:43.063Z,71.56
2018-05-03T02:13:43.043Z,71.56
2018-05-03T02:14:43.022Z,71.43
2018-05-03T02:15:43.001Z,71.81
2018-05-03T02:16:42.986Z,72.00
2018-05-03T02:17:42.964Z,72.28
2018-05-03T02:18:42.939Z,72.28
2018-05-03T02:19:42.921Z,72.00
2018-05-03T02:20:42.901Z,72.38
2018-05-03T02:21:42.883Z,72.86
2018-05-03T02:22:42.866Z,73.52
2018-05-03T02:23:42.852Z,73.05
2018-05-03T02:24:42.832Z,73.24
2018-05-03T02:25:42.824Z,73.05
2018-05-03T02:26:42.792Z,73.52
2018-05-03T02:27:42.767Z,74.29
2018-05-03T02:28:42.738Z,74.29
2018-05-03T02:29:42.725Z,74.77
2018-05-03T02:30:42.698Z,74.48
2018-05-03T02:31:42.702Z,74.10
2018-05-03T02:32:42.659Z,74.29
2018-05-03T02:33:42.638Z,74.77
2018-05-03T02:34:42.628Z,74.57
2018-05-03T02:35:42.600Z,74.96
2018-05-03T02:36:42.578Z,75.24
2018-05-03T02:37:42.560Z,74.48
2018-05-03T02:38:42.559Z,75.34
2018-05-03T02:39:42.518Z,74.38
2018-05-03T02:40:42.499Z,75.05
2018-05-03T02:41:42.480Z,74.48
2018-05-03T02:42:42.456Z,74.38
2018-05-03T02:43:42.435Z,74.29
2018-05-03T02:44:42.429Z,74.48
2018-05-03T02:45:42.400Z,74.57
2018-05-03T02:46:42.375Z,74.57
2018-05-03T02:47:42.360Z,74.10
2018-05-03T02:48:42.336Z,74.57
2018-05-03T02:49:42.318Z,75.05
2018-05-03T02:50:42.293Z,74.67
2018-05-03T02:51:42.273Z,74.48
2018-05-03T02:52:42.260Z,74.38
2018-05-03T02:53:42.233Z,75.05
2018-05-03T02:54:42.229Z,75.05
2018-05-03T02:55:42.192Z,75.34
2018-05-03T02:56:42.170Z,74.96
2018-05-03T02:57:42.154Z,75.24
2018-05-03T02:58:42.134Z,74.67
2018-05-03T02:59:42.110Z,74.96
2018-05-03T03:00:42.091Z,74.67
2018-05-03T03:01:42.071Z,74.71
2018-05-03T03:02:42.053Z,75.05
2018-05-03T03:03:42.034Z,74.52
2018-05-03T03:04:42.020Z,75.09
2018-05-03T03:05:41.994Z,74.80
2018-05-03T03:06:41.968Z,74.90
2018-05-03T03:07:41.951Z,74.99
2018-05-03T03:08:41.937Z,74.71
2018-05-03T03:09:41.929Z,74.90
2018-05-03T03:10:41.896Z,74.71
2018-05-03T03:11:41.884Z,74.32
2018-05-03T03:12:41.860Z,74.04
2018-05-03T03:13:41.828Z,73.85
2018-05-03T03:14:41.808Z,73.56
2018-05-03T03:15:41.799Z,74.04
2018-05-03T03:16:41.769Z,73.56
2018-05-03T03:17:41.749Z,73.94
2018-05-03T03:18:41.729Z,74.13
2018-05-03T03:19:41.708Z,74.52
2018-05-03T03:20:41.688Z,73.94
2018-05-03T03:21:41.670Z,74.13
2018-05-03T03:22:41.723Z,74.32
2018-05-03T03:23:41.661Z,74.13
2018-05-03T03:24:41.608Z,74.04
2018-05-03T03:25:41.644Z,74.52
2018-05-03T03:26:41.593Z,74.32
2018-05-03T03:27:41.547Z,73.94
2018-05-03T03:28:41.535Z,74.04
2018-05-03T03:29:41.514Z,73.94
2018-05-03T03:30:41.507Z,74.23
2018-05-03T03:31:41.512Z,74.32
2018-05-03T03:32:41.453Z,74.13
2018-05-03T03:33:41.434Z,73.66
2018-05-03T03:34:41.409Z,73.50
2018-05-03T03:35:41.393Z,73.66
2018-05-03T03:36:41.383Z,73.60
2018-05-03T03:37:41.370Z,74.13
2018-05-03T03:38:41.353Z,74.61
2018-05-03T03:39:41.311Z,75.09
2018-05-03T03:40:41.293Z,74.99
2018-05-03T03:41:41.273Z,75.18
2018-05-03T03:42:41.287Z,75.76
2018-05-03T03:43:41.236Z,76.04
2018-05-03T03:44:41.260Z,75.37
2018-05-03T03:45:41.195Z,75.18
2018-05-03T03:46:41.173Z,75.28
2018-05-03T03:47:41.150Z,75.37
2018-05-03T03:48:41.173Z,75.76
2018-05-03T03:49:41.111Z,75.47
2018-05-03T03:50:41.094Z,75.76
2018-05-03T03:51:41.110Z,75.28
2018-05-03T03:52:41.075Z,75.18
2018-05-03T03:53:41.053Z,75.18
2018-05-03T03:54:41.031Z,76.14
2018-05-03T03:55:41.013Z,75.76
2018-05-03T03:56:40.973Z,75.85
2018-05-03T03:57:40.968Z,76.23
2018-05-03T03:58:40.945Z,76.42
2018-05-03T03:59:40.914Z,76.52
2018-05-03T04:00:40.899Z,77.00
2018-05-03T04:01:40.878Z,77.28
2018-05-03T04:02:40.888Z,77.38
2018-05-03T04:03:40.847Z,77.28
2018-05-03T04:04:40.828Z,77.91
2018-05-03T04:05:40.801Z,78.20
2018-05-03T04:06:40.780Z,78.49
2018-05-03T04:07:40.768Z,78.86
2018-05-03T04:08:40.751Z,78.20
2018-05-03T04:09:40.717Z,77.91
2018-05-03T04:10:40.694Z,78.67
2018-05-03T04:11:40.677Z,78.58
2018-05-03T04:12:40.654Z,78.58
2018-05-03T04:13:40.637Z,79.06
2018-05-03T04:14:40.614Z,79.63
2018-05-03T04:15:40.594Z,79.25
2018-05-03T04:16:40.603Z,79.53
2018-05-03T04:17:40.559Z,79.35
2018-05-03T04:18:40.537Z,78.81
2018-05-03T04:19:40.515Z,80.11
2018-05-03T04:20:40.497Z,80.05
2018-05-03T04:21:40.485Z,80.11
2018-05-03T04:22:40.456Z,80.49
2018-05-03T04:23:40.440Z,80.15
2018-05-03T04:24:40.477Z,79.28
2018-05-03T04:25:40.464Z,79.57
2018-05-03T04:26:40.492Z,79.44
2018-05-03T04:27:41.944Z,78.14
2018-05-03T04:28:40.387Z,78.91
2018-05-03T04:29:40.622Z,78.91
2018-05-03T04:30:40.302Z,78.52
2018-05-03T04:32:40.257Z,78.33
2018-05-03T04:33:41.158Z,77.67
2018-05-03T04:34:40.910Z,76.81
2018-05-03T04:35:40.198Z,77.57
2018-05-03T04:36:40.200Z,77.67
2018-05-03T04:37:40.300Z,77.19
2018-05-03T04:38:40.170Z,77.28
2018-05-03T04:39:40.119Z,77.19
2018-05-03T04:40:40.099Z,76.23
2018-05-03T04:41:40.088Z,76.52
2018-05-03T04:42:40.118Z,76.90
2018-05-03T04:43:40.040Z,77.00
2018-05-03T04:44:40.020Z,76.71
2018-05-03T04:45:40.006Z,76.62
2018-05-03T04:46:39.977Z,77.38
2018-05-03T04:47:39.958Z,77.19
2018-05-03T04:48:39.939Z,76.33
2018-05-03T04:49:39.921Z,76.23
2018-05-03T04:50:39.894Z,77.09
2018-05-03T04:51:39.934Z,76.33
2018-05-03T04:52:40.427Z,76.52
2018-05-03T04:53:39.897Z,76.62
2018-05-03T04:54:39.880Z,75.95
2018-05-03T04:55:39.801Z,76.52
2018-05-03T04:56:39.779Z,75.57
2018-05-03T04:57:39.801Z,76.33
2018-05-03T04:58:39.743Z,76.52
2018-05-03T04:59:39.720Z,76.71
2018-05-03T05:00:39.698Z,76.52
2018-05-03T05:01:39.678Z,75.95
2018-05-03T05:02:39.679Z,75.85
2018-05-03T05:03:39.636Z,75.85
2018-05-03T05:04:39.709Z,75.66
2018-05-03T05:05:39.600Z,75.47
2018-05-03T05:06:39.580Z,75.66
2018-05-03T05:07:39.571Z,75.28
2018-05-03T05:08:39.608Z,75.57
2018-05-03T05:09:39.549Z,75.37
2018-05-03T05:10:39.498Z,75.09
2018-05-03T05:11:39.477Z,75.09
2018-05-03T05:12:39.457Z,75.28
2018-05-03T05:13:39.439Z,74.99
2018-05-03T05:14:39.421Z,75.09
2018-05-03T05:15:39.394Z,75.28
2018-05-03T05:16:39.379Z,75.09
2018-05-03T05:17:39.360Z,74.61
2018-05-03T05:18:39.342Z,74.80
2018-05-03T05:19:39.319Z,74.13
2018-05-03T05:20:39.300Z,73.75
2018-05-03T05:21:39.280Z,74.13
2018-05-03T05:22:39.257Z,73.47
2018-05-03T05:23:39.237Z,73.94
2018-05-03T05:24:39.222Z,74.13
2018-05-03T05:25:39.198Z,73.66
2018-05-03T05:26:39.179Z,74.67
2018-05-03T05:27:39.159Z,74.04
2018-05-03T05:28:39.137Z,73.85
2018-05-03T05:29:39.118Z,74.80
2018-05-03T05:30:39.187Z,74.04
2018-05-03T05:31:39.078Z,74.80
2018-05-03T05:32:39.060Z,74.80
2018-05-03T05:33:39.038Z,74.23
2018-05-03T05:34:39.020Z,73.37
2018-05-03T05:35:39.002Z,72.99
2018-05-03T05:36:38.978Z,73.37
2018-05-03T05:37:38.963Z,73.37
2018-05-03T05:38:38.984Z,72.51
2018-05-03T05:39:38.930Z,73.47
2018-05-03T05:40:38.902Z,72.42
2018-05-03T05:41:38.892Z,72.89
2018-05-03T05:42:38.867Z,72.99
2018-05-03T05:43:39.428Z,72.32
2018-05-03T05:44:38.880Z,72.42
2018-05-03T05:45:38.869Z,72.23
2018-05-03T05:46:38.806Z,71.84
2018-05-03T05:47:38.810Z,71.94
2018-05-03T05:48:38.754Z,72.23
2018-05-03T05:49:38.718Z,72.42
2018-05-03T05:50:38.704Z,72.51
2018-05-03T05:51:38.679Z,72.23
2018-05-03T05:52:38.659Z,72.61
2018-05-03T05:53:38.642Z,71.66
2018-05-03T05:54:38.627Z,71.37
2018-05-03T05:55:38.604Z,71.50
2018-05-03T05:56:38.600Z,71.46
2018-05-03T05:57:38.564Z,72.13
2018-05-03T05:58:38.540Z,72.36
2018-05-03T05:59:38.523Z,71.59
2018-05-03T06:00:38.501Z,71.56
2018-05-03T06:01:38.481Z,71.41
2018-05-03T06:02:38.475Z,71.84
2018-05-03T06:03:38.438Z,71.50
2018-05-03T06:04:38.419Z,71.59
2018-05-03T06:05:38.400Z,71.59
2018-05-03T06:06:38.386Z,71.59
2018-05-03T06:07:38.437Z,72.07
2018-05-03T06:08:38.340Z,71.50
2018-05-03T06:09:38.325Z,71.50
2018-05-03T06:10:38.303Z,71.50
2018-05-03T06:11:38.283Z,72.36
2018-05-03T06:12:38.261Z,71.50
2018-05-03T06:13:38.247Z,71.88
2018-05-03T06:14:38.246Z,71.78
2018-05-03T06:15:38.207Z,72.26
2018-05-03T06:16:38.184Z,71.50
2018-05-03T06:17:38.170Z,72.07
2018-05-03T06:18:38.148Z,72.64
2018-05-03T06:19:38.129Z,72.07
2018-05-03T06:20:38.104Z,71.41
2018-05-03T06:21:38.102Z,71.50
2018-05-03T06:22:38.063Z,71.41
2018-05-03T06:23:38.044Z,71.41
2018-05-03T06:24:38.024Z,71.69
2018-05-03T06:25:38.007Z,71.34
2018-05-03T06:26:37.987Z,71.53
2018-05-03T06:27:37.967Z,71.69
2018-05-03T06:28:37.949Z,71.06
2018-05-03T06:29:37.929Z,70.39
2018-05-03T06:30:37.905Z,70.45
2018-05-03T06:31:37.889Z,70.67
2018-05-03T06:32:37.869Z,70.67
2018-05-03T06:33:37.852Z,70.67
2018-05-03T06:34:37.830Z,70.10
2018-05-03T06:35:37.809Z,70.39
2018-05-03T06:36:37.795Z,70.20
2018-05-03T06:37:37.778Z,70.20
2018-05-03T06:38:37.750Z,70.48
2018-05-03T06:39:37.741Z,70.10
2018-05-03T06:40:37.712Z,70.39
2018-05-03T06:41:37.696Z,69.62
2018-05-03T06:42:37.671Z,69.05
2018-05-03T06:43:37.686Z,68.76
2018-05-03T06:44:37.636Z,68.76
2018-05-03T06:45:37.614Z,69.15
2018-05-03T06:46:37.593Z,69.72
2018-05-03T06:47:37.577Z,69.15
2018-05-03T06:48:37.555Z,68.86
2018-05-03T06:49:37.543Z,67.71
2018-05-03T06:50:37.517Z,66.95
2018-05-03T06:51:37.524Z,67.55
2018-05-03T06:52:37.483Z,67.36
2018-05-03T06:53:37.465Z,67.18
2018-05-03T06:54:37.450Z,67.46
2018-05-03T06:55:37.506Z,66.79
2018-05-03T06:56:37.481Z,66.50
2018-05-03T06:57:37.993Z,66.89
2018-05-03T06:58:37.439Z,67.08
2018-05-03T06:59:37.373Z,67.46
2018-05-03T07:00:37.358Z,66.31
2018-05-03T07:01:37.305Z,66.31
2018-05-03T07:02:37.286Z,66.22
2018-05-03T07:03:37.270Z,66.35
2018-05-03T07:04:37.296Z,65.64
2018-05-03T07:05:37.233Z,65.45
2018-05-03T07:06:37.211Z,65.64
2018-05-03T07:07:37.226Z,65.36
2018-05-03T07:08:37.176Z,65.87
2018-05-03T07:09:37.154Z,66.06
2018-05-03T07:10:37.150Z,66.25
2018-05-03T07:11:37.117Z,66.63
2018-05-03T07:12:37.096Z,66.54
2018-05-03T07:13:37.082Z,66.25
2018-05-03T07:14:37.064Z,66.35
2018-05-03T07:15:37.087Z,66.54
2018-05-03T07:16:37.019Z,65.68
2018-05-03T07:17:37.002Z,65.68
2018-05-03T07:18:36.982Z,65.68
2018-05-03T07:19:36.972Z,66.44
2018-05-03T07:20:36.943Z,65.97
2018-05-03T07:21:36.924Z,66.06
2018-05-03T07:22:36.914Z,65.48
2018-05-03T07:23:36.898Z,64.53
2018-05-03T07:24:36.868Z,64.62
2018-05-03T07:25:36.849Z,64.82
2018-05-03T07:26:36.828Z,65.11
2018-05-03T07:27:36.824Z,65.30
2018-05-03T07:28:36.792Z,64.53
2018-05-03T07:29:36.790Z,64.43
2018-05-03T07:30:36.752Z,63.86
2018-05-03T07:31:36.742Z,64.43
2018-05-03T07:32:36.720Z,64.91
2018-05-03T07:33:36.699Z,65.01
2018-05-03T07:34:36.687Z,64.85
2018-05-03T07:35:36.674Z,64.53
2018-05-03T07:36:36.652Z,64.56
2018-05-03T07:37:36.624Z,64.37
2018-05-03T07:38:36.604Z,64.95
2018-05-03T07:39:36.590Z,64.66
2018-05-03T07:40:36.650Z,64.25
2018-05-03T07:41:36.550Z,64.62
2018-05-03T07:42:36.534Z,65.01
2018-05-03T07:43:36.515Z,65.58
2018-05-03T07:44:36.558Z,65.87
2018-05-03T07:45:36.474Z,65.87
2018-05-03T07:46:36.456Z,65.01
2018-05-03T07:47:36.436Z,65.58
2018-05-03T07:48:36.494Z,65.97
2018-05-03T07:49:36.427Z,65.01
2018-05-03T07:50:36.410Z,64.91
2018-05-03T07:51:36.366Z,64.91
2018-05-03T07:52:36.352Z,64.43
2018-05-03T07:53:36.326Z,63.76
2018-05-03T07:54:36.334Z,63.76
2018-05-03T07:55:36.289Z,63.48
2018-05-03T07:56:36.335Z,64.34
2018-05-03T07:57:36.268Z,64.53
2018-05-03T07:58:36.270Z,64.82
2018-05-03T07:59:36.232Z,63.67
2018-05-03T08:00:36.198Z,63.39
2018-05-03T08:01:36.180Z,63.67
2018-05-03T08:02:36.156Z,63.57
2018-05-03T08:03:36.144Z,64.43
2018-05-03T08:04:36.119Z,65.17
2018-05-03T08:05:36.102Z,65.55
2018-05-03T08:06:36.081Z,65.93
2018-05-03T08:07:36.064Z,66.60
2018-05-03T08:08:36.045Z,66.89
2018-05-03T08:09:36.028Z,66.79
2018-05-03T08:10:36.025Z,67.75
2018-05-03T08:11:35.988Z,68.04
2018-05-03T08:12:36.097Z,68.32
2018-05-03T08:13:35.952Z,68.13
2018-05-03T08:14:35.962Z,67.65
2018-05-03T08:15:35.914Z,66.63
2018-05-03T08:16:35.895Z,65.68
2018-05-03T08:17:35.879Z,65.39
2018-05-03T08:18:35.857Z,65.30
2018-05-03T08:19:35.868Z,65.20
2018-05-03T08:20:35.826Z,64.91
2018-05-03T08:21:35.819Z,64.15
2018-05-03T08:22:35.813Z,63.76
2018-05-03T08:23:35.794Z,63.57
2018-05-03T08:24:35.749Z,63.48
2018-05-03T08:25:35.733Z,63.67
2018-05-03T08:26:35.726Z,62.90
2018-05-03T08:27:35.709Z,63.48
2018-05-03T08:28:35.712Z,64.05
2018-05-03T08:29:35.653Z,63.86
2018-05-03T08:30:35.635Z,63.86
2018-05-03T08:31:35.615Z,63.67
2018-05-03T08:32:35.596Z,64.43
2018-05-03T08:33:35.576Z,64.43
2018-05-03T08:34:35.560Z,64.53
2018-05-03T08:35:35.543Z,63.48
2018-05-03T08:36:35.522Z,63.86
2018-05-03T08:37:35.502Z,63.29
2018-05-03T08:38:35.483Z,62.84
2018-05-03T08:39:35.466Z,62.94
2018-05-03T08:40:35.445Z,62.94
2018-05-03T08:41:35.427Z,63.13
2018-05-03T08:42:35.413Z,63.13
2018-05-03T08:43:35.393Z,62.27
2018-05-03T08:44:35.396Z,62.55
2018-05-03T08:45:35.375Z,62.65
2018-05-03T08:46:35.337Z,62.94
2018-05-03T08:47:35.317Z,63.42
2018-05-03T08:48:35.296Z,62.94
2018-05-03T08:49:35.286Z,62.65
2018-05-03T08:50:35.259Z,61.41
2018-05-03T08:51:35.250Z,60.93
2018-05-03T08:52:35.223Z,61.22
2018-05-03T08:53:35.206Z,61.31
2018-05-03T08:54:35.184Z,61.12
2018-05-03T08:55:35.179Z,61.98
2018-05-03T08:56:35.154Z,61.02
2018-05-03T08:57:35.128Z,62.37
2018-05-03T08:58:35.115Z,59.88
2018-05-03T08:59:35.091Z,58.47
2018-05-03T09:00:35.075Z,58.37
2018-05-03T09:01:35.059Z,58.76
2018-05-03T09:02:35.060Z,58.18
2018-05-03T09:03:35.026Z,59.33
2018-05-03T09:04:35.000Z,59.23
2018-05-03T09:05:34.983Z,58.76
2018-05-03T09:06:34.964Z,57.99
2018-05-03T09:07:34.995Z,57.13
2018-05-03T09:08:34.925Z,55.88
2018-05-03T09:09:34.917Z,56.56
2018-05-03T09:10:34.889Z,57.90
2018-05-03T09:11:34.881Z,58.18
2018-05-03T09:12:34.857Z,57.61
2018-05-03T09:13:34.836Z,57.80
2018-05-03T09:14:34.815Z,58.47
2018-05-03T09:15:34.806Z,57.39
2018-05-03T09:16:34.788Z,57.90
2018-05-03T09:17:34.764Z,57.70
2018-05-03T09:18:34.781Z,57.13
2018-05-03T09:19:34.752Z,57.80
2018-05-03T09:20:34.713Z,57.70
2018-05-03T09:21:34.688Z,57.23
2018-05-03T09:22:34.669Z,56.68
2018-05-03T09:23:34.659Z,56.20
2018-05-03T09:24:34.642Z,55.53
2018-05-03T09:25:34.617Z,54.96
2018-05-03T09:26:34.598Z,54.38
2018-05-03T09:27:34.582Z,54.03
2018-05-03T09:28:34.561Z,54.28
2018-05-03T09:29:34.544Z,53.52
2018-05-03T09:30:34.525Z,52.85
2018-05-03T09:31:34.508Z,49.40
2018-05-03T09:32:34.500Z,50.65
2018-05-03T09:33:34.473Z,51.61
2018-05-03T09:34:34.455Z,49.98
2018-05-03T09:35:34.446Z,49.88
2018-05-03T09:36:34.431Z,49.98
2018-05-03T09:37:34.400Z,48.75
2018-05-03T09:38:34.381Z,48.25
2018-05-03T09:39:34.366Z,49.02
2018-05-03T09:40:34.351Z,46.82
2018-05-03T09:41:34.352Z,46.34
2018-05-03T09:42:34.310Z,46.05
2018-05-03T09:43:34.294Z,44.79
2018-05-03T09:44:34.283Z,42.49
2018-05-03T09:45:34.262Z,42.87
2018-05-03T09:46:34.242Z,43.44
2018-05-03T09:47:34.225Z,45.86
2018-05-03T09:48:34.208Z,46.34
2018-05-03T09:49:34.193Z,46.82
2018-05-03T09:50:34.171Z,45.96
2018-05-03T09:51:34.152Z,46.15
2018-05-03T09:52:34.197Z,46.82
2018-05-03T09:53:34.119Z,47.11
2018-05-03T09:54:34.097Z,46.34
2018-05-03T09:55:34.083Z,46.05
2018-05-03T09:56:34.070Z,45.96
2018-05-03T09:57:34.050Z,46.08
2018-05-03T09:58:34.029Z,46.36
2018-05-03T09:59:34.009Z,44.93
2018-05-03T10:00:33.999Z,44.06
2018-05-03T10:01:33.985Z,45.40
2018-05-03T10:02:33.959Z,44.45
2018-05-03T10:03:33.940Z,44.09
2018-05-03T10:04:33.928Z,44.85
2018-05-03T10:05:33.912Z,46.19
2018-05-03T10:06:33.891Z,45.23
2018-05-03T10:07:33.870Z,44.47
2018-05-03T10:08:33.857Z,44.85
2018-05-03T10:09:33.841Z,45.14
2018-05-03T10:10:33.824Z,44.26
2018-05-03T10:11:33.800Z,44.35
2018-05-03T10:12:33.787Z,46.65
2018-05-03T10:13:33.770Z,47.32
2018-05-03T10:14:33.794Z,47.06
2018-05-03T10:15:33.733Z,47.44
2018-05-03T10:16:33.718Z,46.29
2018-05-03T10:17:33.717Z,44.97
2018-05-03T10:18:33.694Z,44.40
2018-05-03T10:19:33.665Z,43.44
2018-05-03T10:20:33.646Z,42.17
2018-05-03T10:21:33.634Z,42.46
2018-05-03T10:22:33.614Z,43.15
2018-05-03T10:23:33.600Z,43.05
2018-05-03T10:24:33.582Z,43.53
2018-05-03T10:25:33.564Z,42.30
2018-05-03T10:26:33.550Z,43.17
2018-05-03T10:27:33.535Z,43.87
2018-05-03T10:28:33.517Z,44.34
2018-05-03T10:29:33.500Z,40.81
2018-05-03T10:30:33.485Z,40.72
2018-05-03T10:31:33.468Z,39.29
2018-05-03T10:32:33.450Z,40.76
2018-05-03T10:33:33.445Z,41.76
2018-05-03T10:34:33.421Z,39.86
2018-05-03T10:35:33.405Z,36.99
2018-05-03T10:36:33.395Z,35.64
2018-05-03T10:37:33.379Z,33.51
2018-05-03T10:38:33.363Z,34.67
2018-05-03T10:39:33.354Z,37.95
2018-05-03T10:40:33.337Z,38.56
2018-05-03T10:41:33.326Z,35.71
2018-05-03T10:42:33.315Z,35.05
2018-05-03T10:43:33.294Z,35.08
2018-05-03T10:44:33.281Z,34.23
2018-05-03T10:45:33.278Z,31.33
2018-05-03T10:46:33.260Z,30.66
2018-05-03T10:47:33.240Z,30.25
2018-05-03T10:48:33.229Z,31.86
2018-05-03T10:49:33.220Z,33.00
2018-05-03T10:50:33.206Z,32.20
2018-05-03T10:51:33.192Z,32.87
2018-05-03T10:52:33.185Z,33.44
2018-05-03T10:53:33.170Z,33.71
2018-05-03T10:54:33.155Z,34.27
2018-05-03T10:55:33.147Z,34.94
2018-05-03T10:56:33.132Z,36.10
2018-05-03T10:57:33.160Z,36.41
2018-05-03T10:58:33.107Z,37.63
2018-05-03T10:59:33.096Z,35.10
2018-05-03T11:00:33.079Z,29.32
2018-05-03T11:01:33.067Z,27.70
2018-05-03T11:02:33.051Z,25.94
2018-05-03T11:03:33.061Z,26.16
2018-05-03T11:04:33.067Z,25.58
2018-05-03T11:05:33.099Z,25.58
2018-05-03T11:06:33.005Z,27.22
2018-05-03T11:07:32.996Z,27.81
2018-05-03T11:08:32.988Z,27.22
2018-05-03T11:09:32.977Z,27.25
2018-05-03T11:10:32.966Z,25.21
2018-05-03T11:11:32.954Z,23.11
2018-05-03T11:12:32.954Z,23.09
2018-05-03T11:13:32.940Z,23.68
2018-05-03T11:14:32.966Z,24.63
2018-05-03T11:15:32.915Z,24.62
2018-05-03T11:16:32.909Z,24.92
2018-05-03T11:17:32.898Z,24.38
2018-05-03T11:18:32.889Z,21.95
2018-05-03T11:19:32.882Z,22.44
2018-05-03T11:20:32.879Z,22.75
2018-05-03T11:21:32.860Z,21.41
2018-05-03T11:22:32.848Z,20.55
2018-05-03T11:23:32.840Z,19.78
2018-05-03T11:24:32.879Z,20.45
2018-05-03T11:25:32.825Z,20.55
2018-05-03T11:26:32.817Z,19.86
2018-05-03T11:27:32.808Z,19.58
2018-05-03T11:28:32.802Z,19.21
2018-05-03T11:29:32.795Z,18.93
2018-05-03T11:30:32.790Z,17.95
2018-05-03T11:31:32.814Z,17.56
2018-05-03T11:32:32.829Z,16.78
2018-05-03T11:33:32.768Z,16.37
2018-05-03T11:34:32.759Z,16.85
2018-05-03T11:35:32.763Z,17.44
2018-05-03T11:36:32.751Z,18.13
2018-05-03T11:37:32.741Z,17.55
2018-05-03T11:38:32.763Z,17.35
2018-05-03T11:39:32.728Z,18.62
2018-05-03T11:40:32.798Z,19.11
2018-05-03T11:41:32.722Z,18.54
2018-05-03T11:42:32.718Z,18.26
2018-05-03T11:43:32.709Z,18.44
2018-05-03T11:44:32.705Z,18.43
2018-05-03T11:45:32.705Z,20.35
2018-05-03T11:46:32.698Z,20.42
2018-05-03T11:47:32.692Z,20.50
2018-05-03T11:48:32.723Z,22.42
2018-05-03T11:49:32.679Z,22.79
2018-05-03T11:50:32.675Z,22.88
2018-05-03T11:51:32.669Z,23.64
2018-05-03T11:52:32.663Z,23.58
2018-05-03T11:53:32.668Z,23.46
2018-05-03T11:54:32.654Z,24.41
2018-05-03T11:55:32.651Z,24.78
2018-05-03T11:56:32.639Z,25.15
2018-05-03T11:57:32.625Z,25.77
2018-05-03T11:58:32.624Z,24.62
2018-05-03T11:59:32.609Z,24.05
2018-05-03T12:00:32.609Z,23.59
2018-05-03T12:01:32.595Z,23.02
2018-05-03T12:02:32.658Z,23.13
2018-05-03T12:03:32.580Z,21.37
2018-05-03T12:04:32.572Z,21.27
2018-05-03T12:05:32.573Z,21.84
2018-05-03T12:06:32.555Z,21.37
2018-05-03T12:07:32.554Z,21.28
2018-05-03T12:08:32.570Z,20.99
2018-05-03T12:09:32.545Z,20.68
2018-05-03T12:10:32.528Z,19.70
2018-05-03T12:11:32.516Z,20.18
2018-05-03T12:12:32.507Z,20.18
2018-05-03T12:13:32.499Z,20.60
2018-05-03T12:14:32.496Z,20.24
2018-05-03T12:15:32.490Z,18.11
2018-05-03T12:16:32.479Z,17.30
2018-05-03T12:17:32.471Z,17.78
2018-05-03T12:18:32.464Z,18.25
2018-05-03T12:19:32.550Z,18.35
2018-05-03T12:20:32.465Z,18.53
2018-05-03T12:21:32.443Z,20.37
2018-05-03T12:22:32.438Z,20.45
2018-05-03T12:23:32.435Z,21.42
2018-05-03T12:24:32.422Z,21.93
2018-05-03T12:25:32.414Z,20.49
2018-05-03T12:26:32.409Z,19.35
2018-05-03T12:27:32.403Z,19.34
2018-05-03T12:28:32.396Z,19.50
2018-05-03T12:29:32.390Z,20.56
2018-05-03T12:30:32.383Z,21.62
2018-05-03T12:31:32.416Z,21.26
2018-05-03T12:32:32.368Z,21.34
2018-05-03T12:33:32.364Z,21.14
2018-05-03T12:34:32.359Z,21.33
2018-05-03T12:35:32.347Z,20.46
2018-05-03T12:36:32.343Z,20.48
2018-05-03T12:37:32.339Z,20.20
2018-05-03T12:38:32.327Z,18.85
2018-05-03T12:39:32.321Z,18.58
2018-05-03T12:40:32.312Z,19.58
2018-05-03T12:41:32.356Z,18.32
2018-05-03T12:42:32.299Z,17.44
2018-05-03T12:43:32.293Z,17.03
2018-05-03T12:44:32.287Z,18.42
2018-05-03T12:45:32.278Z,17.44
2018-05-03T12:46:32.271Z,16.94
2018-05-03T12:47:32.268Z,17.58
2018-05-03T12:48:32.258Z,19.13
2018-05-03T12:49:32.254Z,21.04
2018-05-03T12:50:32.247Z,21.12
2018-05-03T12:51:32.242Z,21.79
2018-05-03T12:52:32.238Z,22.63
2018-05-03T12:53:32.229Z,22.47